Time;durP1;ratioP1;P1;durP2;ratioP2;P2;SDS_P1;SDS_P2;PMS_P1;PMS_P2;Temp;Humidity;BMP_temperature;BMP_pressure;BME280_temperature;BME280_humidity;BME280_pressure;Samples;Min_cycle;Max_cycle;Signal;HPM_P1;HPM_P2
2022/05/12 00:01:23;;;;;;;0.30;0.30;;;17.10;1.00;;;;;;5084581;28;20201;-76
2022/05/12 00:03:49;;;;;;;0.30;0.30;;;17.00;1.00;;;;;;5073546;28;20220;-77
2022/05/12 00:06:15;;;;;;;0.30;0.30;;;17.00;1.00;;;;;;5073779;28;20179;-76
2022/05/12 00:08:41;;;;;;;0.30;0.30;;;16.90;1.00;;;;;;5071983;28;20186;-76
2022/05/12 00:11:06;;;;;;;0.30;0.30;;;17.00;1.00;;;;;;5072960;28;20210;-76
2022/05/12 00:13:32;;;;;;;0.40;0.40;;;17.00;1.00;;;;;;5073535;28;20549;-77
2022/05/12 00:15:58;;;;;;;0.30;0.30;;;17.10;1.00;;;;;;5090474;22;20751;-78
2022/05/12 00:18:25;;;;;;;0.30;0.30;;;17.20;1.00;;;;;;5052780;28;20179;-78
2022/05/12 00:20:51;;;;;;;0.33;0.33;;;17.30;1.00;;;;;;5054671;28;20679;-78
2022/05/12 00:23:21;;;;;;;0.37;0.37;;;17.30;1.00;;;;;;5054956;28;20186;-77
2022/05/12 00:25:48;;;;;;;0.40;0.40;;;17.40;1.00;;;;;;5055283;28;20179;-79
2022/05/12 00:28:14;;;;;;;0.30;0.30;;;17.40;1.00;;;;;;5055218;28;20180;-78
2022/05/12 00:30:41;;;;;;;0.47;0.47;;;17.40;1.00;;;;;;5054606;28;20306;-77
2022/05/12 00:33:07;;;;;;;0.40;0.40;;;17.40;1.00;;;;;;5054238;28;20262;-77
2022/05/12 00:35:34;;;;;;;0.30;0.30;;;17.40;1.00;;;;;;5052794;28;20179;-77
2022/05/12 00:37:59;;;;;;;0.40;0.40;;;17.40;1.00;;;;;;5054056;28;20195;-77
2022/05/12 00:40:25;;;;;;;0.50;0.50;;;17.40;1.00;;;;;;5053264;28;20198;-77
2022/05/12 00:42:58;;;;;;;0.30;0.30;;;17.30;1.00;;;;;;5053807;28;20217;-77
2022/05/12 00:45:26;;;;;;;0.30;0.30;;;17.30;1.00;;;;;;5053547;28;20253;-77
2022/05/12 00:47:51;;;;;;;0.30;0.30;;;17.30;1.00;;;;;;5053542;28;20607;-76
2022/05/12 00:50:19;;;;;;;0.30;0.30;;;17.30;1.00;;;;;;5053635;28;20228;-77
2022/05/12 00:52:45;;;;;;;0.30;0.30;;;17.30;1.00;;;;;;5053860;28;20228;-76
2022/05/12 00:55:18;;;;;;;0.27;0.27;;;17.30;1.00;;;;;;5053583;28;20266;-77
2022/05/12 00:57:53;;;;;;;0.40;0.40;;;17.30;1.00;;;;;;5053583;28;20539;-77
2022/05/12 01:00:20;;;;;;;0.30;0.30;;;17.30;1.00;;;;;;5054032;28;20177;-77
2022/05/12 01:02:49;;;;;;;0.40;0.40;;;17.40;1.00;;;;;;5055097;28;20175;-77
2022/05/12 01:05:16;;;;;;;0.40;0.40;;;17.40;1.00;;;;;;5054700;28;20222;-77
2022/05/12 01:07:42;;;;;;;0.30;0.30;;;17.40;1.00;;;;;;5055488;28;20167;-78
2022/05/12 01:10:09;;;;;;;0.30;0.30;;;17.50;1.00;;;;;;5054441;28;20590;-77
2022/05/12 01:12:38;;;;;;;0.30;0.30;;;17.60;1.00;;;;;;5055442;28;20604;-78
2022/05/12 01:15:06;;;;;;;0.20;0.20;;;17.60;1.00;;;;;;5056246;28;20648;-77
2022/05/12 01:17:31;;;;;;;0.40;0.40;;;17.50;1.00;;;;;;5056833;28;20219;-78
2022/05/12 01:19:57;;;;;;;0.30;0.30;;;17.50;1.00;;;;;;5053155;28;20197;-77
2022/05/12 01:22:56;;;;;;;0.40;0.40;;;17.50;1.00;;;;;;5052965;28;20626;-77
2022/05/12 01:25:25;;;;;;;0.40;0.40;;;17.40;1.00;;;;;;5052620;28;20218;-76
2022/05/12 01:27:51;;;;;;;0.30;0.30;;;17.50;1.00;;;;;;5053489;28;20538;-76
2022/05/12 01:30:21;;;;;;;0.30;0.30;;;17.50;1.00;;;;;;5051782;28;20229;-76
2022/05/12 01:32:47;;;;;;;0.30;0.30;;;17.50;1.00;;;;;;5045702;28;20179;-77
2022/05/12 01:35:14;;;;;;;0.30;0.30;;;17.60;1.00;;;;;;5052308;28;20179;-76
2022/05/12 01:37:42;;;;;;;0.40;0.40;;;17.60;1.00;;;;;;5052542;28;20245;-77
2022/05/12 01:40:09;;;;;;;0.37;0.37;;;17.60;1.00;;;;;;5051961;28;20257;-77
2022/05/12 01:42:34;;;;;;;0.30;0.30;;;17.50;1.00;;;;;;5052502;28;20207;-76
2022/05/12 01:45:00;;;;;;;0.27;0.27;;;17.50;1.00;;;;;;5052229;28;20214;-77
2022/05/12 01:47:25;;;;;;;0.47;0.47;;;17.50;1.00;;;;;;5051906;28;20186;-76
2022/05/12 01:49:51;;;;;;;0.37;0.37;;;17.40;1.00;;;;;;5051566;28;20175;-77
2022/05/12 01:52:16;;;;;;;0.30;0.30;;;17.30;1.00;;;;;;5052045;28;20554;-77
2022/05/12 01:54:42;;;;;;;0.30;0.30;;;17.20;1.00;;;;;;5052126;28;20175;-76
2022/05/12 01:57:08;;;;;;;0.30;0.30;;;17.10;1.00;;;;;;5052122;28;20171;-77
2022/05/12 01:59:34;;;;;;;0.40;0.40;;;17.00;1.00;;;;;;5051594;28;20175;-77
2022/05/12 02:02:00;;;;;;;0.27;0.27;;;16.90;1.00;;;;;;5051929;28;20199;-77
2022/05/12 02:04:25;;;;;;;0.40;0.40;;;16.80;1.00;;;;;;5051787;28;20207;-77
2022/05/12 02:06:51;;;;;;;0.30;0.30;;;16.80;1.00;;;;;;5052137;28;20529;-77
2022/05/12 02:09:16;;;;;;;0.30;0.30;;;16.70;1.00;;;;;;5051582;28;20178;-76
2022/05/12 02:11:42;;;;;;;0.30;0.30;;;16.70;1.00;;;;;;5051891;28;20195;-77
2022/05/12 02:14:08;;;;;;;0.30;0.30;;;16.70;1.00;;;;;;5051951;28;20225;-77
2022/05/12 02:16:35;;;;;;;0.30;0.30;;;16.80;1.00;;;;;;5051704;28;20202;-77
2022/05/12 02:19:02;;;;;;;0.37;0.37;;;16.80;1.00;;;;;;5051183;28;20206;-76
2022/05/12 02:21:28;;;;;;;0.23;0.23;;;16.80;1.00;;;;;;5051617;28;20199;-76
2022/05/12 02:23:54;;;;;;;0.40;0.40;;;16.60;1.00;;;;;;5052025;28;20210;-77
2022/05/12 02:26:19;;;;;;;0.30;0.30;;;16.40;1.00;;;;;;5051807;28;20183;-77
2022/05/12 02:28:45;;;;;;;0.30;0.30;;;16.30;1.00;;;;;;5051577;28;20543;-77
2022/05/12 02:31:10;;;;;;;0.30;0.30;;;16.20;1.00;;;;;;5051296;28;20191;-76
2022/05/12 02:33:36;;;;;;;0.30;0.30;;;16.20;1.00;;;;;;5051556;28;20174;-77
2022/05/12 02:36:02;;;;;;;0.27;0.27;;;16.10;1.00;;;;;;5051570;28;20210;-77
2022/05/12 02:38:29;;;;;;;0.40;0.40;;;16.10;1.00;;;;;;5051726;28;20171;-76
2022/05/12 02:40:54;;;;;;;0.40;0.40;;;16.20;1.00;;;;;;5051066;28;20202;-76
2022/05/12 02:43:23;;;;;;;0.27;0.27;;;16.30;1.00;;;;;;5051647;28;20655;-76
2022/05/12 02:45:53;;;;;;;0.30;0.30;;;16.30;1.00;;;;;;5051562;28;20206;-76
2022/05/12 02:48:21;;;;;;;0.30;0.30;;;16.30;1.00;;;;;;5051670;28;20175;-76
2022/05/12 02:50:47;;;;;;;0.30;0.30;;;16.20;1.00;;;;;;5051201;28;20195;-76
2022/05/12 02:53:12;;;;;;;0.33;0.33;;;16.20;1.00;;;;;;5051630;28;20259;-75
2022/05/12 02:55:38;;;;;;;0.40;0.40;;;16.20;1.00;;;;;;5051650;28;20544;-75
2022/05/12 02:58:04;;;;;;;0.30;0.30;;;16.20;1.00;;;;;;5051629;28;20203;-75
2022/05/12 03:00:31;;;;;;;0.30;0.30;;;16.20;1.00;;;;;;5054151;28;20266;-75
2022/05/12 03:02:57;;;;;;;0.30;0.30;;;16.20;1.00;;;;;;5055304;28;20183;-75
2022/05/12 03:05:23;;;;;;;0.30;0.30;;;16.20;1.00;;;;;;5055182;28;20577;-76
2022/05/12 03:07:49;;;;;;;0.40;0.40;;;16.10;1.00;;;;;;5055367;28;20174;-75
2022/05/12 03:10:14;;;;;;;0.40;0.40;;;16.00;79.40;;;;;;5054872;28;20183;-75
2022/05/12 03:12:40;;;;;;;0.30;0.30;;;16.00;99.90;;;;;;5055270;28;20633;-75
2022/05/12 03:15:07;;;;;;;0.40;0.40;;;15.90;99.90;;;;;;5055083;28;20182;-75
2022/05/12 03:17:33;;;;;;;0.30;0.30;;;15.90;99.90;;;;;;5054807;28;20213;-76
2022/05/12 03:19:59;;;;;;;0.40;0.40;;;15.80;99.90;;;;;;5054594;28;20179;-75
2022/05/12 03:22:24;;;;;;;0.30;0.30;;;15.70;99.90;;;;;;5055024;28;20261;-75
2022/05/12 03:24:50;;;;;;;0.40;0.40;;;15.60;99.90;;;;;;5054812;28;20214;-75
2022/05/12 03:27:16;;;;;;;0.30;0.30;;;15.50;99.90;;;;;;5054779;28;20178;-76
2022/05/12 03:29:42;;;;;;;0.30;0.30;;;15.40;1.00;;;;;;5054412;28;20176;-76
2022/05/12 03:32:10;;;;;;;0.33;0.33;;;15.30;1.00;;;;;;5054572;28;20203;-76
2022/05/12 03:34:38;;;;;;;0.30;0.30;;;15.30;1.00;;;;;;5054897;28;20587;-76
2022/05/12 03:37:05;;;;;;;0.37;0.37;;;15.20;1.00;;;;;;5054853;28;20179;-76
2022/05/12 03:39:31;;;;;;;0.40;0.40;;;15.20;1.00;;;;;;5054254;28;20179;-76
2022/05/12 03:41:56;;;;;;;0.40;0.40;;;15.10;1.00;;;;;;5054408;28;20279;-76
2022/05/12 03:47:06;;;;;;;0.30;0.30;;;15.00;99.90;;;;;;5054797;28;20184;-76
2022/05/12 03:49:31;;;;;;;0.30;0.30;;;14.90;99.90;;;;;;5053499;28;20187;-76
2022/05/12 03:51:57;;;;;;;0.33;0.33;;;14.90;99.90;;;;;;5049029;28;20618;-77
2022/05/12 03:54:23;;;;;;;0.33;0.33;;;14.80;99.90;;;;;;5054726;28;20210;-77
2022/05/12 03:56:49;;;;;;;0.30;0.30;;;14.80;1.00;;;;;;5054599;28;20166;-76
2022/05/12 03:59:14;;;;;;;0.40;0.40;;;14.70;1.00;;;;;;5054200;28;20175;-76
2022/05/12 04:01:40;;;;;;;0.30;0.30;;;14.70;1.00;;;;;;5054410;28;20252;-76
2022/05/12 04:04:05;;;;;;;0.40;0.40;;;14.60;75.60;;;;;;5054349;28;20207;-76
2022/05/12 04:06:31;;;;;;;0.40;0.40;;;14.60;1.00;;;;;;5054244;28;20234;-74
2022/05/12 04:08:57;;;;;;;0.30;0.30;;;14.60;1.00;;;;;;5053782;28;20175;-75
2022/05/12 04:11:22;;;;;;;0.30;0.30;;;14.60;1.00;;;;;;5053944;28;20218;-74
2022/05/12 04:13:48;;;;;;;0.40;0.40;;;14.60;42.10;;;;;;5054087;28;20213;-75
2022/05/12 04:16:15;;;;;;;0.40;0.40;;;14.60;99.90;;;;;;5054337;28;20187;-75
2022/05/12 04:18:41;;;;;;;0.47;0.47;;;14.60;1.00;;;;;;5054298;28;20206;-75
2022/05/12 04:21:06;;;;;;;0.40;0.40;;;14.60;1.00;;;;;;5047534;28;20214;-77
2022/05/12 04:23:32;;;;;;;0.30;0.30;;;14.60;1.00;;;;;;5052271;28;20730;-76
2022/05/12 04:25:58;;;;;;;0.50;0.50;;;14.70;1.00;;;;;;5053154;28;20182;-75
2022/05/12 04:28:23;;;;;;;0.40;0.40;;;14.80;99.90;;;;;;5053899;28;20175;-76
2022/05/12 04:30:49;;;;;;;0.40;0.40;;;15.00;1.00;;;;;;5052929;28;20195;-75
2022/05/12 04:35:58;;;;;;;0.40;0.40;;;15.30;99.90;;;;;;5054448;28;20229;-75
2022/05/12 04:38:26;;;;;;;0.37;0.37;;;15.30;99.90;;;;;;5053842;28;20547;-75
2022/05/12 04:40:52;;;;;;;0.43;0.43;;;15.30;99.90;;;;;;5053303;28;20199;-76
2022/05/12 04:43:17;;;;;;;0.30;0.30;;;15.50;99.90;;;;;;5053634;28;20186;-75
2022/05/12 04:45:43;;;;;;;0.40;0.40;;;15.80;1.00;;;;;;5053768;28;20236;-75
2022/05/12 04:48:09;;;;;;;0.33;0.33;;;16.10;1.00;;;;;;5053934;28;20191;-75
2022/05/12 04:50:36;;;;;;;0.40;0.40;;;16.40;1.00;;;;;;5059651;28;20861;-76
2022/05/12 04:53:03;;;;;;;0.40;0.40;;;16.50;99.90;;;;;;5053600;28;20640;-75
2022/05/12 04:55:29;;;;;;;0.40;0.40;;;16.70;99.90;;;;;;5053686;28;20262;-75
2022/05/12 04:57:56;;;;;;;0.40;0.40;;;16.80;1.00;;;;;;5053507;28;20244;-75
2022/05/12 05:00:29;;;;;;;0.30;0.30;;;16.90;1.00;;;;;;5053022;28;20175;-77
2022/05/12 05:02:55;;;;;;;0.30;0.30;;;17.20;1.00;;;;;;5053693;28;20176;-76
2022/05/12 05:05:21;;;;;;;0.30;0.30;;;17.50;99.90;;;;;;5053111;28;20233;-76
2022/05/12 05:07:47;;;;;;;0.40;0.40;;;17.80;99.90;;;;;;5053040;28;20175;-76
2022/05/12 05:10:13;;;;;;;0.40;0.40;;;18.00;99.90;;;;;;5052914;28;20180;-76
2022/05/12 05:12:40;;;;;;;0.30;0.30;;;18.20;99.90;;;;;;5053055;28;20187;-76
2022/05/12 05:15:07;;;;;;;0.40;0.40;;;18.40;99.90;;;;;;5053106;28;20190;-76
2022/05/12 05:17:35;;;;;;;0.40;0.40;;;18.50;99.90;;;;;;5052629;28;20248;-76
2022/05/12 05:20:04;;;;;;;0.37;0.37;;;18.50;99.90;;;;;;5052256;28;20187;-76
2022/05/12 05:22:30;;;;;;;0.43;0.43;;;18.50;70.90;;;;;;5051866;28;20244;-75
2022/05/12 05:24:55;;;;;;;0.30;0.30;;;18.50;1.00;;;;;;5052935;28;20218;-76
2022/05/12 05:27:21;;;;;;;0.30;0.30;;;18.40;16.20;;;;;;5052816;28;20532;-76
2022/05/12 05:29:48;;;;;;;0.30;0.30;;;18.40;95.20;;;;;;5052279;28;20636;-76
2022/05/12 05:32:14;;;;;;;0.40;0.40;;;18.40;99.90;;;;;;5052619;28;20199;-75
2022/05/12 05:34:39;;;;;;;0.30;0.30;;;18.40;99.90;;;;;;5052514;28;20202;-75
2022/05/12 05:37:05;;;;;;;0.30;0.30;;;18.60;99.90;;;;;;5051177;28;20179;-75
2022/05/12 05:39:30;;;;;;;0.30;0.30;;;18.60;1.00;;;;;;5049147;28;20186;-76
2022/05/12 05:42:18;;;;;;;0.30;0.30;;;18.60;1.00;;;;;;5051092;28;20191;-76
2022/05/12 05:44:43;;;;;;;0.30;0.30;;;18.70;1.00;;;;;;5052581;28;20215;-75
2022/05/12 05:47:09;;;;;;;0.30;0.30;;;18.90;1.00;;;;;;5052585;28;20190;-76
2022/05/12 05:49:38;;;;;;;0.30;0.30;;;19.10;1.00;;;;;;5051585;28;20613;-76
2022/05/12 05:54:49;;;;;;;0.37;0.37;;;19.30;1.00;;;;;;5052446;28;20401;-76
2022/05/12 05:57:21;;;;;;;0.30;0.30;;;19.40;1.00;;;;;;5051972;28;20636;-76
2022/05/12 05:59:48;;;;;;;0.30;0.30;;;19.50;49.60;;;;;;5051608;28;20183;-77
2022/05/12 06:02:13;;;;;;;0.30;0.30;;;19.60;30.80;;;;;;5052245;28;20199;-76
2022/05/12 06:04:39;;;;;;;0.30;0.30;;;19.80;1.00;;;;;;5051934;28;20280;-77
2022/05/12 06:07:05;;;;;;;0.20;0.20;;;20.00;1.00;;;;;;5052110;28;20172;-77
2022/05/12 06:09:30;;;;;;;0.30;0.30;;;20.20;1.00;;;;;;5051408;28;20690;-77
2022/05/12 06:11:56;;;;;;;0.20;0.20;;;20.50;1.00;;;;;;5051819;28;20198;-77
2022/05/12 06:14:21;;;;;;;0.33;0.33;;;20.60;1.00;;;;;;5051828;28;20596;-77
2022/05/12 06:16:48;;;;;;;0.30;0.30;;;20.70;1.00;;;;;;5052106;28;20703;-77
2022/05/12 06:19:13;;;;;;;0.30;0.30;;;20.80;1.00;;;;;;5051529;28;20179;-76
2022/05/12 06:21:39;;;;;;;0.20;0.20;;;20.70;1.00;;;;;;5051642;28;20553;-76
2022/05/12 06:24:04;;;;;;;0.40;0.40;;;20.70;1.00;;;;;;5051828;28;20264;-76
2022/05/12 06:26:30;;;;;;;0.30;0.30;;;20.70;1.00;;;;;;5051066;28;20258;-77
2022/05/12 06:28:57;;;;;;;0.30;0.30;;;20.80;1.00;;;;;;5058157;28;20266;-76
2022/05/12 06:31:29;;;;;;;0.20;0.20;;;20.90;1.00;;;;;;5056102;28;20647;-76
2022/05/12 06:33:56;;;;;;;0.20;0.20;;;21.10;1.00;;;;;;5050842;28;20183;-76
2022/05/12 06:36:22;;;;;;;0.30;0.30;;;21.20;1.00;;;;;;5051665;28;20171;-76
2022/05/12 06:38:48;;;;;;;0.30;0.30;;;21.20;1.00;;;;;;5033484;28;20179;-77
2022/05/12 06:41:14;;;;;;;0.30;0.30;;;21.30;1.00;;;;;;5051068;28;20699;-77
2022/05/12 06:43:45;;;;;;;0.40;0.40;;;21.30;1.00;;;;;;5051366;28;20202;-76
2022/05/12 06:46:12;;;;;;;0.30;0.30;;;21.50;1.00;;;;;;5050891;28;20186;-76
2022/05/12 06:48:37;;;;;;;0.20;0.20;;;21.70;1.00;;;;;;5051448;28;20513;-76
2022/05/12 06:51:03;;;;;;;0.30;0.30;;;22.00;1.00;;;;;;5050530;28;20221;-76
2022/05/12 06:53:29;;;;;;;0.23;0.23;;;22.20;1.00;;;;;;5051446;28;20621;-77
2022/05/12 06:55:55;;;;;;;0.30;0.30;;;22.30;1.00;;;;;;5051451;28;20177;-76
2022/05/12 06:58:20;;;;;;;0.30;0.30;;;22.20;1.00;;;;;;5053577;28;20309;-76
2022/05/12 07:00:46;;;;;;;0.40;0.40;;;22.30;1.00;;;;;;5051020;28;20191;-76
2022/05/12 07:03:13;;;;;;;0.30;0.30;;;22.30;1.00;;;;;;5051378;28;20185;-73
2022/05/12 07:05:40;;;;;;;0.30;0.30;;;22.40;1.00;;;;;;5050036;28;20207;-74
2022/05/12 07:08:06;;;;;;;0.30;0.30;;;22.40;1.00;;;;;;5049869;28;20654;-74
2022/05/12 07:10:32;;;;;;;0.30;0.30;;;22.50;1.00;;;;;;5050061;28;20258;-74
2022/05/12 07:12:58;;;;;;;0.30;0.30;;;22.60;1.00;;;;;;5051089;28;20271;-74
2022/05/12 07:15:27;;;;;;;0.30;0.30;;;22.80;1.00;;;;;;5051242;28;20266;-74
2022/05/12 07:17:55;;;;;;;0.20;0.20;;;23.00;1.00;;;;;;5051385;28;20210;-73
2022/05/12 07:28:36;;;;;;;0.40;0.40;;;23.00;1.00;;;;;;5051153;28;20679;-74
2022/05/12 07:31:03;;;;;;;0.27;0.27;;;23.30;1.00;;;;;;5050033;28;20215;-74
2022/05/12 07:33:37;;;;;;;0.40;0.40;;;23.40;1.00;;;;;;5051068;28;20191;-73
2022/05/12 07:36:09;;;;;;;0.27;0.27;;;23.80;1.00;;;;;;5051226;28;20190;-74
2022/05/12 07:38:35;;;;;;;0.30;0.30;;;24.00;1.00;;;;;;5050643;28;20167;-73
2022/05/12 07:41:01;;;;;;;0.30;0.30;;;24.10;1.00;;;;;;5049688;28;20279;-73
2022/05/12 07:43:26;;;;;;;0.30;0.30;;;24.00;1.00;;;;;;5050389;28;20175;-73
2022/05/12 07:45:53;;;;;;;0.20;0.20;;;24.40;1.00;;;;;;5052643;28;20229;-74
2022/05/12 07:48:19;;;;;;;0.27;0.27;;;25.20;1.00;;;;;;5053841;28;20262;-74
2022/05/12 07:50:45;;;;;;;0.37;0.37;;;26.00;1.00;;;;;;5050841;28;20274;-74
2022/05/12 07:53:10;;;;;;;0.40;0.40;;;26.50;1.00;;;;;;5054030;28;20225;-72
2022/05/12 07:55:36;;;;;;;0.30;0.30;;;26.20;1.00;;;;;;5053978;28;20598;-73
2022/05/12 07:58:04;;;;;;;0.30;0.30;;;26.10;1.00;;;;;;5054183;28;20179;-73
2022/05/12 08:00:30;;;;;;;0.37;0.37;;;26.30;1.00;;;;;;5053644;28;20183;-73
2022/05/12 08:02:56;;;;;;;0.30;0.30;;;26.60;1.00;;;;;;5036587;28;20596;-73
2022/05/12 08:05:23;;;;;;;0.40;0.40;;;26.60;1.00;;;;;;5054361;28;20215;-73
2022/05/12 08:07:48;;;;;;;0.33;0.33;;;26.00;1.00;;;;;;5054726;28;20183;-77
2022/05/12 08:10:15;;;;;;;0.33;0.33;;;25.90;1.00;;;;;;5053074;28;20179;-76
2022/05/12 08:12:40;;;;;;;0.40;0.40;;;25.20;1.00;;;;;;5053904;28;20179;-76
2022/05/12 08:15:07;;;;;;;0.30;0.30;;;25.00;1.00;;;;;;5053570;28;20187;-75
2022/05/12 08:17:32;;;;;;;0.40;0.40;;;25.00;1.00;;;;;;5053665;28;20206;-75
2022/05/12 08:19:58;;;;;;;0.30;0.30;;;25.00;1.00;;;;;;5053528;28;20256;-75
2022/05/12 08:22:24;;;;;;;0.40;0.40;;;25.20;1.00;;;;;;5053856;28;20280;-75
2022/05/12 08:24:51;;;;;;;0.30;0.30;;;25.40;1.00;;;;;;5053732;28;20595;-75
2022/05/12 08:27:17;;;;;;;0.30;0.30;;;25.30;1.00;;;;;;5054289;28;20187;-75
2022/05/12 08:29:43;;;;;;;0.30;0.30;;;25.20;1.00;;;;;;5053151;28;20659;-75
2022/05/12 08:32:09;;;;;;;0.30;0.30;;;25.30;1.00;;;;;;5054077;28;20699;-76
2022/05/12 08:34:34;;;;;;;0.33;0.33;;;25.20;1.00;;;;;;5053744;28;20187;-75
2022/05/12 08:37:01;;;;;;;0.40;0.40;;;24.90;1.00;;;;;;5053857;28;20266;-75
2022/05/12 08:39:26;;;;;;;0.40;0.40;;;24.50;1.00;;;;;;5035836;28;20173;-74
2022/05/12 08:42:03;;;;;;;0.30;0.30;;;24.30;1.00;;;;;;5053430;28;20289;-75
2022/05/12 08:44:33;;;;;;;0.50;0.50;;;23.90;1.00;;;;;;5053493;28;20269;-75
2022/05/12 08:47:01;;;;;;;0.30;0.30;;;23.90;1.00;;;;;;5053615;28;20195;-75
2022/05/12 08:49:31;;;;;;;0.37;0.37;;;23.90;1.00;;;;;;5053019;28;20225;-78
2022/05/12 08:52:16;;;;;;;0.33;0.33;;;24.00;1.00;;;;;;5052528;28;20690;-77
2022/05/12 08:54:50;;;;;;;0.20;0.20;;;23.90;1.00;;;;;;5053221;28;20183;-76
2022/05/12 08:57:39;;;;;;;0.40;0.40;;;24.00;1.00;;;;;;5052059;28;20677;-77
2022/05/12 09:00:10;;;;;;;0.33;0.33;;;23.70;1.00;;;;;;5052717;28;20213;-77
2022/05/12 09:02:57;;;;;;;0.30;0.30;;;23.50;1.00;;;;;;5052985;28;20202;-77
2022/05/12 09:05:29;;;;;;;0.40;0.40;;;23.70;1.00;;;;;;5052949;28;20229;-77
2022/05/12 09:08:32;;;;;;;0.20;0.20;;;24.20;1.00;;;;;;5052994;28;20179;-77
2022/05/12 09:11:00;;;;;;;0.30;0.30;;;24.70;1.00;;;;;;5052368;28;20195;-77
2022/05/12 09:13:48;;;;;;;0.40;0.40;;;25.00;1.00;;;;;;5052860;28;20193;-77
2022/05/12 09:16:26;;;;;;;0.30;0.30;;;25.60;1.00;;;;;;5052795;28;20218;-76
2022/05/12 09:18:53;;;;;;;0.30;0.30;;;26.60;1.00;;;;;;5052343;28;20266;-78
2022/05/12 09:21:31;;;;;;;0.20;0.20;;;27.40;1.00;;;;;;5051997;28;20668;-77
2022/05/12 09:23:57;;;;;;;0.30;0.30;;;28.00;1.00;;;;;;5052001;28;20202;-79
2022/05/12 09:26:39;;;;;;;0.30;0.30;;;27.90;1.00;;;;;;5050073;28;20171;-78
2022/05/12 09:29:17;;;;;;;0.30;0.30;;;28.00;1.00;;;;;;5049468;28;20175;-77
2022/05/12 09:31:52;;;;;;;0.40;0.40;;;28.00;1.00;;;;;;5049322;28;20743;-78
2022/05/12 09:34:23;;;;;;;0.40;0.40;;;28.30;1.00;;;;;;5052744;28;20179;-79
2022/05/12 09:36:49;;;;;;;0.30;0.30;;;28.20;1.00;;;;;;5052852;28;20636;-79
2022/05/12 09:39:55;;;;;;;0.40;0.40;;;27.90;1.00;;;;;;5052628;28;20266;-78
2022/05/12 09:42:29;;;;;;;0.40;0.40;;;27.90;1.00;;;;;;4991063;28;20200;-78
2022/05/12 09:45:07;;;;;;;0.30;0.30;;;27.60;1.00;;;;;;5045434;28;20642;-79
2022/05/12 09:47:33;;;;;;;0.20;0.20;;;27.40;1.00;;;;;;5052867;28;20621;-79
2022/05/12 09:50:16;;;;;;;0.43;0.43;;;27.10;1.00;;;;;;5052383;28;20186;-78
2022/05/12 09:52:55;;;;;;;0.30;0.30;;;26.80;1.00;;;;;;5052545;28;20524;-77
2022/05/12 09:55:24;;;;;;;0.40;0.40;;;26.60;1.00;;;;;;5052299;28;20175;-76
2022/05/12 09:57:54;;;;;;;0.40;0.40;;;26.20;1.00;;;;;;5052321;28;20179;-77
2022/05/12 10:00:33;;;;;;;0.30;0.30;;;26.20;1.00;;;;;;5051672;28;20263;-77
2022/05/12 10:09:06;;;;;;;0.30;0.30;;;26.70;1.00;;;;;;5051282;28;20220;-77
2022/05/12 10:11:53;;;;;;;0.30;0.30;;;27.10;1.00;;;;;;5051689;28;20203;-77
2022/05/12 10:14:29;;;;;;;0.40;0.40;;;27.60;1.00;;;;;;5051980;28;20175;-76
2022/05/12 10:16:57;;;;;;;0.30;0.30;;;27.60;1.00;;;;;;5051763;28;20201;-75
2022/05/12 10:19:26;;;;;;;0.47;0.47;;;27.30;1.00;;;;;;5051423;28;20241;-76
2022/05/12 10:21:58;;;;;;;0.37;0.37;;;26.90;1.00;;;;;;5051684;28;20199;-76
2022/05/12 10:24:57;;;;;;;0.40;0.40;;;26.90;1.00;;;;;;5051463;28;20571;-75
2022/05/12 10:27:55;;;;;;;0.43;0.43;;;26.80;1.00;;;;;;5049170;28;20175;-76
2022/05/12 10:30:35;;;;;;;0.40;0.40;;;26.80;1.00;;;;;;5051143;28;20163;-76
2022/05/12 10:33:14;;;;;;;0.30;0.30;;;27.30;1.00;;;;;;5051888;28;20267;-75
2022/05/12 10:35:48;;;;;;;0.50;0.50;;;27.70;1.00;;;;;;5051748;28;20179;-76
2022/05/12 10:38:27;;;;;;;0.30;0.30;;;28.00;1.00;;;;;;5051838;28;20179;-76
2022/05/12 10:40:53;;;;;;;0.30;0.30;;;27.80;1.00;;;;;;5050969;28;20585;-77
2022/05/12 10:43:53;;;;;;;0.30;0.30;;;28.00;1.00;;;;;;5051567;28;20209;-77
2022/05/12 10:46:38;;;;;;;0.40;0.40;;;28.20;1.00;;;;;;5052221;28;20179;-75
2022/05/12 10:49:20;;;;;;;0.30;0.30;;;27.90;1.00;;;;;;5051056;28;20551;-76
2022/05/12 10:52:02;;;;;;;0.40;0.40;;;27.80;1.00;;;;;;5051655;28;20214;-77
2022/05/12 10:55:18;;;;;;;0.40;0.40;;;27.80;1.00;;;;;;5051877;28;20179;-77
2022/05/12 10:58:04;;;;;;;0.30;0.30;;;27.60;1.00;;;;;;4969788;28;20217;-77
2022/05/12 11:00:44;;;;;;;0.40;0.40;;;27.80;1.00;;;;;;5044627;28;20187;-77
2022/05/12 11:03:24;;;;;;;0.40;0.40;;;27.80;1.00;;;;;;5048760;28;20178;-75
2022/05/12 11:05:56;;;;;;;0.40;0.40;;;28.00;1.00;;;;;;5048934;28;20653;-76
2022/05/12 11:08:34;;;;;;;0.40;0.40;;;27.90;1.00;;;;;;5050693;28;20176;-75
2022/05/12 11:11:06;;;;;;;0.30;0.30;;;28.30;1.00;;;;;;5050808;28;20210;-76
2022/05/12 11:13:39;;;;;;;0.30;0.30;;;28.60;1.00;;;;;;5052181;28;20186;-76
2022/05/12 11:16:22;;;;;;;0.30;0.30;;;28.80;1.00;;;;;;5051169;28;20210;-78
2022/05/12 11:18:54;;;;;;;0.30;0.30;;;28.90;1.00;;;;;;5051326;28;20226;-76
2022/05/12 11:21:27;;;;;;;0.40;0.40;;;28.80;1.00;;;;;;5054347;28;20206;-76
2022/05/12 11:24:11;;;;;;;0.50;0.50;;;29.30;1.00;;;;;;5056397;28;20202;-79
2022/05/12 11:27:01;;;;;;;0.30;0.30;;;29.80;1.00;;;;;;5055562;28;20182;-78
2022/05/12 11:29:52;;;;;;;0.40;0.40;;;29.80;1.00;;;;;;5055942;28;20704;-77
2022/05/12 11:32:55;;;;;;;0.50;0.50;;;29.50;1.00;;;;;;5055802;28;20206;-78
2022/05/12 11:35:26;;;;;;;0.40;0.40;;;29.60;1.00;;;;;;5054873;28;20190;-77
2022/05/12 11:37:57;;;;;;;0.50;0.50;;;29.40;1.00;;;;;;5054925;28;20184;-78
2022/05/12 11:40:41;;;;;;;0.40;0.40;;;29.10;1.00;;;;;;5054347;28;20194;-78
2022/05/12 11:46:25;;;;;;;0.40;0.40;;;28.50;1.00;;;;;;5054727;28;20250;-78
2022/05/12 11:48:58;;;;;;;0.30;0.30;;;28.20;1.00;;;;;;5056305;28;20576;-77
2022/05/12 11:51:54;;;;;;;0.50;0.50;;;28.60;1.00;;;;;;5054574;28;20191;-78
2022/05/12 11:54:22;;;;;;;0.40;0.40;;;28.80;1.00;;;;;;5054740;28;20175;-77
2022/05/12 11:56:51;;;;;;;0.43;0.43;;;28.60;1.00;;;;;;5054306;28;20175;-78
2022/05/12 11:59:26;;;;;;;0.50;0.50;;;28.90;1.00;;;;;;5053489;28;20172;-77
2022/05/12 12:02:04;;;;;;;0.20;0.20;;;28.50;1.00;;;;;;5054162;28;20201;-78
2022/05/12 12:04:50;;;;;;;0.40;0.40;;;27.50;1.00;;;;;;5054032;28;20206;-77
2022/05/12 12:07:30;;;;;;;0.40;0.40;;;27.20;1.00;;;;;;5053784;28;20544;-77
2022/05/12 12:10:33;;;;;;;0.40;0.40;;;27.30;1.00;;;;;;5053527;28;20203;-77
2022/05/12 12:13:04;;;;;;;0.37;0.37;;;27.30;1.00;;;;;;5054102;28;20185;-78
2022/05/12 12:15:37;;;;;;;0.40;0.40;;;27.20;1.00;;;;;;5053789;28;20179;-77
2022/05/12 12:18:17;;;;;;;0.40;0.40;;;27.60;1.00;;;;;;5096180;22;20249;-79
2022/05/12 12:20:47;;;;;;;0.50;0.50;;;28.40;1.00;;;;;;5081306;28;20205;-79
2022/05/12 12:23:29;;;;;;;0.50;0.50;;;28.50;1.00;;;;;;5081579;28;20249;-78
2022/05/12 12:26:02;;;;;;;0.40;0.40;;;28.80;1.00;;;;;;5080836;28;20220;-79
2022/05/12 12:28:51;;;;;;;0.50;0.50;;;29.20;1.00;;;;;;5081770;28;20266;-79
2022/05/12 12:31:37;;;;;;;0.40;0.40;;;28.90;1.00;;;;;;5070758;28;20198;-80
2022/05/12 12:34:17;;;;;;;0.50;0.50;;;28.60;1.00;;;;;;5077847;28;20205;-79
2022/05/12 12:36:55;;;;;;;0.50;0.50;;;28.10;1.00;;;;;;5080249;28;20178;-78
2022/05/12 12:39:36;;;;;;;0.40;0.40;;;28.00;1.00;;;;;;5075730;28;20678;-78
2022/05/12 12:42:09;;;;;;;0.47;0.47;;;27.90;1.00;;;;;;5074784;28;20214;-78
2022/05/12 12:44:42;;;;;;;0.40;0.40;;;27.80;1.00;;;;;;5071497;28;20206;-78
2022/05/12 12:47:22;;;;;;;0.40;0.40;;;27.80;1.00;;;;;;5066573;28;20494;-76
2022/05/12 12:49:55;;;;;;;0.30;0.30;;;27.80;1.00;;;;;;5054578;28;20648;-76
2022/05/12 12:52:21;;;;;;;0.30;0.30;;;27.90;1.00;;;;;;5053764;28;20187;-77
2022/05/12 12:57:49;;;;;;;0.53;0.53;;;28.60;1.00;;;;;;5053405;28;20178;-76
2022/05/12 13:00:36;;;;;;;0.43;0.43;;;28.30;1.00;;;;;;5068900;28;20206;-77
2022/05/12 13:03:22;;;;;;;0.40;0.40;;;28.00;1.00;;;;;;5073301;28;20174;-76
2022/05/12 13:05:49;;;;;;;0.40;0.40;;;27.70;1.00;;;;;;5072697;28;20217;-77
2022/05/12 13:08:20;;;;;;;0.27;0.27;;;27.10;1.00;;;;;;5073675;28;20170;-77
2022/05/12 13:10:49;;;;;;;0.50;0.50;;;26.90;1.00;;;;;;5072211;28;20202;-77
2022/05/12 13:13:15;;;;;;;0.30;0.30;;;26.80;1.00;;;;;;5071483;28;20228;-77
2022/05/12 13:15:45;;;;;;;0.30;0.30;;;26.70;1.00;;;;;;5068051;28;20179;-77
2022/05/12 13:18:21;;;;;;;0.50;0.50;;;26.50;1.00;;;;;;5063303;28;20191;-77
2022/05/12 13:20:48;;;;;;;0.20;0.20;;;26.50;1.00;;;;;;5068652;28;20718;-77
2022/05/12 13:23:17;;;;;;;0.30;0.30;;;26.40;1.00;;;;;;5052791;28;20183;-77
2022/05/12 13:25:43;;;;;;;0.20;0.20;;;26.30;1.00;;;;;;5052477;28;20225;-76
2022/05/12 13:28:16;;;;;;;0.30;0.30;;;26.20;1.00;;;;;;5052756;28;20171;-76
2022/05/12 13:30:50;;;;;;;0.30;0.30;;;26.10;1.00;;;;;;5051974;28;20195;-76
2022/05/12 13:33:18;;;;;;;0.30;0.30;;;25.70;1.00;;;;;;5052349;28;20167;-76
2022/05/12 13:36:05;;;;;;;0.33;0.33;;;25.50;1.00;;;;;;5052328;28;20632;-75
2022/05/12 13:38:41;;;;;;;0.23;0.23;;;25.50;1.00;;;;;;5052464;28;20542;-76
2022/05/12 13:41:21;;;;;;;0.30;0.30;;;25.40;1.00;;;;;;5056160;28;20410;-76